]idnight River — HP7399 — position and weather

sailwx.info

Track history (hours):
 
Tides and Currents Weather Stations Pressure Air Temp Water Temp Dewpoint Dewpoint Depression Visibility Wind Speed Wind Dir Waves Ship Positions

]idnight River

Last reported at 2015-Feb-24 01:33 UTC. Time now 2015-Mar-03 11:17 UTC.
Position N 18°24' W 064°31'.

Type: Ship. MMSI: 352319000.

Date/timePositionNaut miles runAvg speedWind from/ knotsBaromVisibWave heightAir tempDewpointWater temp
2015-Feb-24 01:33N 18°24' W 064°31'5 1.1
2015-Feb-23 21:18N 18°25' W 064°36'7 9.6
2015-Feb-23 20:33N 18°26' W 064°29'0 0.0
2015-Feb-23 15:31N 18°26' W 064°29'6 0.2
2015-Feb-22 08:33N 18°25' W 064°35'  
2015-Feb-17 06:33N 18°24' W 064°34'2 0.3
2015-Feb-17 00:14N 18°25' W 064°36'6 9.6
2015-Feb-16 23:33N 18°26' W 064°29'1 0.2
2015-Feb-16 18:31N 18°26' W 064°28'7 0.2
2015-Feb-15 09:33N 18°25' W 064°36'  
Track history (hours):
 
Tides and Currents Weather Stations Pressure Air Temp Water Temp Dewpoint Dewpoint Depression Visibility Wind Speed Wind Dir Waves Ship Positions

]idnight River

Last reported at 2015-Feb-24 01:33 UTC. Time now 2015-Mar-03 11:17 UTC.
Position N 18°24' W 064°31'.

Type: Ship. MMSI: 352319000.

Date/timePositionNaut miles runAvg speedWind from/ knotsBaromVisibWave heightAir tempDewpointWater temp
2015-Feb-24 01:33N 18°24' W 064°31'5 1.1
2015-Feb-23 21:18N 18°25' W 064°36'7 9.6
2015-Feb-23 20:33N 18°26' W 064°29'0 0.0
2015-Feb-23 15:31N 18°26' W 064°29'6 0.2
2015-Feb-22 08:33N 18°25' W 064°35'  
2015-Feb-17 06:33N 18°24' W 064°34'2 0.3
2015-Feb-17 00:14N 18°25' W 064°36'6 9.6
2015-Feb-16 23:33N 18°26' W 064°29'1 0.2
2015-Feb-16 18:31N 18°26' W 064°28'7 0.2
2015-Feb-15 09:33N 18°25' W 064°36'  

Dump ship's entire track history